sensor_id;sensor_type;location;lat;lon;timestamp;P1;durP1;ratioP1;P2;durP2;ratioP2
6269;SDS011;3168;51.684;6.954;2023-03-14T00:02:10;4.20;;;1.27;;
6269;SDS011;3168;51.684;6.954;2023-03-14T00:04:36;5.70;;;2.20;;
6269;SDS011;3168;51.684;6.954;2023-03-14T00:07:03;0.93;;;0.90;;
6269;SDS011;3168;51.684;6.954;2023-03-14T00:09:27;8.63;;;1.47;;
6269;SDS011;3168;51.684;6.954;2023-03-14T00:11:53;1.50;;;1.40;;
6269;SDS011;3168;51.684;6.954;2023-03-14T00:14:19;7.00;;;1.23;;
6269;SDS011;3168;51.684;6.954;2023-03-14T00:16:46;0.90;;;0.90;;
6269;SDS011;3168;51.684;6.954;2023-03-14T00:19:11;2.47;;;1.40;;
6269;SDS011;3168;51.684;6.954;2023-03-14T00:21:37;1.40;;;1.30;;
6269;SDS011;3168;51.684;6.954;2023-03-14T00:24:03;2.83;;;1.63;;
6269;SDS011;3168;51.684;6.954;2023-03-14T00:26:29;1.07;;;0.80;;
6269;SDS011;3168;51.684;6.954;2023-03-14T00:28:55;1.57;;;1.47;;
6269;SDS011;3168;51.684;6.954;2023-03-14T00:31:21;2.33;;;0.90;;
6269;SDS011;3168;51.684;6.954;2023-03-14T00:33:47;1.50;;;1.37;;
6269;SDS011;3168;51.684;6.954;2023-03-14T00:36:15;3.10;;;1.13;;
6269;SDS011;3168;51.684;6.954;2023-03-14T00:38:40;7.40;;;2.73;;
6269;SDS011;3168;51.684;6.954;2023-03-14T00:41:06;3.80;;;0.93;;
6269;SDS011;3168;51.684;6.954;2023-03-14T00:43:40;3.47;;;1.30;;
6269;SDS011;3168;51.684;6.954;2023-03-14T00:46:06;1.27;;;1.10;;
6269;SDS011;3168;51.684;6.954;2023-03-14T00:48:31;1.60;;;1.10;;
6269;SDS011;3168;51.684;6.954;2023-03-14T00:50:57;1.30;;;1.20;;
6269;SDS011;3168;51.684;6.954;2023-03-14T00:53:23;8.13;;;1.63;;
6269;SDS011;3168;51.684;6.954;2023-03-14T00:55:50;3.40;;;1.07;;
6269;SDS011;3168;51.684;6.954;2023-03-14T00:58:16;11.17;;;2.10;;
6269;SDS011;3168;51.684;6.954;2023-03-14T01:00:42;2.80;;;1.57;;
6269;SDS011;3168;51.684;6.954;2023-03-14T01:03:08;1.90;;;1.30;;
6269;SDS011;3168;51.684;6.954;2023-03-14T01:05:34;0.67;;;0.67;;
6269;SDS011;3168;51.684;6.954;2023-03-14T01:07:59;8.40;;;1.30;;
6269;SDS011;3168;51.684;6.954;2023-03-14T01:10:25;2.97;;;1.37;;
6269;SDS011;3168;51.684;6.954;2023-03-14T01:12:51;1.30;;;1.13;;
6269;SDS011;3168;51.684;6.954;2023-03-14T01:15:17;0.70;;;0.70;;
6269;SDS011;3168;51.684;6.954;2023-03-14T01:17:43;2.77;;;1.03;;
6269;SDS011;3168;51.684;6.954;2023-03-14T01:20:10;1.70;;;1.13;;
6269;SDS011;3168;51.684;6.954;2023-03-14T01:22:36;1.47;;;1.00;;
6269;SDS011;3168;51.684;6.954;2023-03-14T01:25:01;4.10;;;1.33;;
6269;SDS011;3168;51.684;6.954;2023-03-14T01:27:27;1.10;;;1.10;;
6269;SDS011;3168;51.684;6.954;2023-03-14T01:29:53;1.20;;;1.10;;
6269;SDS011;3168;51.684;6.954;2023-03-14T01:32:19;1.87;;;0.90;;
6269;SDS011;3168;51.684;6.954;2023-03-14T01:34:45;1.10;;;1.10;;
6269;SDS011;3168;51.684;6.954;2023-03-14T01:37:11;0.67;;;0.67;;
6269;SDS011;3168;51.684;6.954;2023-03-14T01:39:36;2.00;;;1.90;;
6269;SDS011;3168;51.684;6.954;2023-03-14T01:42:02;1.07;;;0.90;;
6269;SDS011;3168;51.684;6.954;2023-03-14T01:44:45;4.53;;;0.93;;
6269;SDS011;3168;51.684;6.954;2023-03-14T01:46:54;3.80;;;1.10;;
6269;SDS011;3168;51.684;6.954;2023-03-14T01:49:22;5.20;;;1.27;;
6269;SDS011;3168;51.684;6.954;2023-03-14T01:51:50;1.07;;;1.07;;
6269;SDS011;3168;51.684;6.954;2023-03-14T01:54:20;1.00;;;0.87;;
6269;SDS011;3168;51.684;6.954;2023-03-14T01:57:03;6.63;;;0.80;;
6269;SDS011;3168;51.684;6.954;2023-03-14T01:59:30;1.63;;;1.53;;
6269;SDS011;3168;51.684;6.954;2023-03-14T02:01:56;1.33;;;1.03;;
6269;SDS011;3168;51.684;6.954;2023-03-14T02:04:21;1.47;;;1.33;;
6269;SDS011;3168;51.684;6.954;2023-03-14T02:06:50;1.73;;;0.63;;
6269;SDS011;3168;51.684;6.954;2023-03-14T02:09:15;0.87;;;0.87;;
6269;SDS011;3168;51.684;6.954;2023-03-14T02:11:41;11.63;;;1.00;;
6269;SDS011;3168;51.684;6.954;2023-03-14T02:14:07;1.57;;;1.37;;
6269;SDS011;3168;51.684;6.954;2023-03-14T02:16:34;2.23;;;0.80;;
6269;SDS011;3168;51.684;6.954;2023-03-14T02:18:59;3.60;;;1.00;;
6269;SDS011;3168;51.684;6.954;2023-03-14T02:21:34;0.60;;;0.60;;
6269;SDS011;3168;51.684;6.954;2023-03-14T02:23:59;0.70;;;0.70;;
6269;SDS011;3168;51.684;6.954;2023-03-14T02:26:27;0.70;;;0.70;;
6269;SDS011;3168;51.684;6.954;2023-03-14T02:28:51;3.60;;;2.07;;
6269;SDS011;3168;51.684;6.954;2023-03-14T02:31:17;2.83;;;1.50;;
6269;SDS011;3168;51.684;6.954;2023-03-14T02:33:43;2.03;;;0.80;;
6269;SDS011;3168;51.684;6.954;2023-03-14T02:36:10;1.07;;;1.07;;
6269;SDS011;3168;51.684;6.954;2023-03-14T02:41:23;0.83;;;0.53;;
6269;SDS011;3168;51.684;6.954;2023-03-14T02:43:49;0.90;;;0.90;;
6269;SDS011;3168;51.684;6.954;2023-03-14T02:46:16;7.43;;;2.10;;
6269;SDS011;3168;51.684;6.954;2023-03-14T02:48:44;1.90;;;1.10;;
6269;SDS011;3168;51.684;6.954;2023-03-14T02:51:08;4.70;;;1.17;;
6269;SDS011;3168;51.684;6.954;2023-03-14T02:53:35;1.57;;;1.50;;
6269;SDS011;3168;51.684;6.954;2023-03-14T02:56:00;1.60;;;1.60;;
6269;SDS011;3168;51.684;6.954;2023-03-14T02:58:26;17.97;;;1.57;;
6269;SDS011;3168;51.684;6.954;2023-03-14T03:00:52;0.73;;;0.73;;
6269;SDS011;3168;51.684;6.954;2023-03-14T03:03:17;0.90;;;0.90;;
6269;SDS011;3168;51.684;6.954;2023-03-14T03:05:47;0.97;;;0.97;;
6269;SDS011;3168;51.684;6.954;2023-03-14T03:08:09;8.00;;;2.80;;
6269;SDS011;3168;51.684;6.954;2023-03-14T03:10:35;1.40;;;1.30;;
6269;SDS011;3168;51.684;6.954;2023-03-14T03:13:01;1.37;;;0.90;;
6269;SDS011;3168;51.684;6.954;2023-03-14T03:15:27;0.87;;;0.87;;
6269;SDS011;3168;51.684;6.954;2023-03-14T03:17:52;0.90;;;0.70;;
6269;SDS011;3168;51.684;6.954;2023-03-14T03:20:18;1.63;;;1.37;;
6269;SDS011;3168;51.684;6.954;2023-03-14T03:22:44;1.13;;;1.13;;
6269;SDS011;3168;51.684;6.954;2023-03-14T03:25:10;1.40;;;1.13;;
6269;SDS011;3168;51.684;6.954;2023-03-14T03:27:36;4.40;;;0.80;;
6269;SDS011;3168;51.684;6.954;2023-03-14T03:30:03;0.80;;;0.80;;
6269;SDS011;3168;51.684;6.954;2023-03-14T03:32:28;0.95;;;0.95;;
6269;SDS011;3168;51.684;6.954;2023-03-14T03:34:54;4.10;;;1.33;;
6269;SDS011;3168;51.684;6.954;2023-03-14T03:37:20;0.90;;;0.90;;
6269;SDS011;3168;51.684;6.954;2023-03-14T03:39:46;0.80;;;0.80;;
6269;SDS011;3168;51.684;6.954;2023-03-14T03:42:12;2.77;;;0.80;;
6269;SDS011;3168;51.684;6.954;2023-03-14T03:44:37;2.67;;;1.20;;
6269;SDS011;3168;51.684;6.954;2023-03-14T03:47:03;1.17;;;1.10;;
6269;SDS011;3168;51.684;6.954;2023-03-14T03:49:30;3.13;;;0.90;;
6269;SDS011;3168;51.684;6.954;2023-03-14T03:51:56;2.50;;;1.13;;
6269;SDS011;3168;51.684;6.954;2023-03-14T03:54:22;7.27;;;2.43;;
6269;SDS011;3168;51.684;6.954;2023-03-14T03:56:47;2.13;;;1.33;;
6269;SDS011;3168;51.684;6.954;2023-03-14T03:59:13;0.73;;;0.73;;
6269;SDS011;3168;51.684;6.954;2023-03-14T04:01:39;0.73;;;0.73;;
6269;SDS011;3168;51.684;6.954;2023-03-14T04:04:05;1.13;;;0.67;;
6269;SDS011;3168;51.684;6.954;2023-03-14T04:06:31;1.23;;;1.20;;
6269;SDS011;3168;51.684;6.954;2023-03-14T04:08:57;1.33;;;1.00;;
6269;SDS011;3168;51.684;6.954;2023-03-14T04:11:22;1.97;;;1.20;;
6269;SDS011;3168;51.684;6.954;2023-03-14T04:13:48;2.40;;;1.10;;
6269;SDS011;3168;51.684;6.954;2023-03-14T04:16:17;0.60;;;0.60;;
6269;SDS011;3168;51.684;6.954;2023-03-14T04:18:42;2.20;;;0.97;;
6269;SDS011;3168;51.684;6.954;2023-03-14T04:21:08;0.90;;;0.90;;
6269;SDS011;3168;51.684;6.954;2023-03-14T04:23:33;1.00;;;1.00;;
6269;SDS011;3168;51.684;6.954;2023-03-14T04:25:59;1.57;;;1.47;;
6269;SDS011;3168;51.684;6.954;2023-03-14T04:28:25;1.23;;;1.13;;
6269;SDS011;3168;51.684;6.954;2023-03-14T04:30:51;1.80;;;1.13;;
6269;SDS011;3168;51.684;6.954;2023-03-14T04:33:17;2.95;;;1.12;;
6269;SDS011;3168;51.684;6.954;2023-03-14T04:35:43;3.07;;;1.17;;
6269;SDS011;3168;51.684;6.954;2023-03-14T04:38:09;1.23;;;0.90;;
6269;SDS011;3168;51.684;6.954;2023-03-14T04:40:36;4.17;;;1.60;;
6269;SDS011;3168;51.684;6.954;2023-03-14T04:43:02;1.40;;;0.80;;
6269;SDS011;3168;51.684;6.954;2023-03-14T04:45:27;1.30;;;1.30;;
6269;SDS011;3168;51.684;6.954;2023-03-14T04:47:53;2.30;;;0.70;;
6269;SDS011;3168;51.684;6.954;2023-03-14T04:50:19;1.13;;;1.13;;
6269;SDS011;3168;51.684;6.954;2023-03-14T04:52:45;2.33;;;0.87;;
6269;SDS011;3168;51.684;6.954;2023-03-14T04:55:11;4.40;;;1.93;;
6269;SDS011;3168;51.684;6.954;2023-03-14T04:57:37;1.00;;;1.00;;
6269;SDS011;3168;51.684;6.954;2023-03-14T05:00:05;0.60;;;0.60;;
6269;SDS011;3168;51.684;6.954;2023-03-14T05:02:52;5.40;;;1.00;;
6269;SDS011;3168;51.684;6.954;2023-03-14T05:05:18;1.80;;;0.97;;
6269;SDS011;3168;51.684;6.954;2023-03-14T05:07:44;0.70;;;0.70;;
6269;SDS011;3168;51.684;6.954;2023-03-14T05:10:10;0.80;;;0.80;;
6269;SDS011;3168;51.684;6.954;2023-03-14T05:12:36;3.13;;;0.90;;
6269;SDS011;3168;51.684;6.954;2023-03-14T05:15:02;0.60;;;0.60;;
6269;SDS011;3168;51.684;6.954;2023-03-14T05:17:27;2.50;;;0.83;;
6269;SDS011;3168;51.684;6.954;2023-03-14T05:19:53;0.60;;;0.60;;
6269;SDS011;3168;51.684;6.954;2023-03-14T05:22:19;28.70;;;1.30;;
6269;SDS011;3168;51.684;6.954;2023-03-14T05:24:45;8.87;;;2.03;;
6269;SDS011;3168;51.684;6.954;2023-03-14T05:27:11;1.30;;;1.30;;
6269;SDS011;3168;51.684;6.954;2023-03-14T05:29:37;3.90;;;0.80;;
6269;SDS011;3168;51.684;6.954;2023-03-14T05:32:02;2.77;;;0.50;;
6269;SDS011;3168;51.684;6.954;2023-03-14T05:34:28;0.77;;;0.77;;
6269;SDS011;3168;51.684;6.954;2023-03-14T05:36:54;2.00;;;0.60;;
6269;SDS011;3168;51.684;6.954;2023-03-14T05:39:20;0.50;;;0.50;;
6269;SDS011;3168;51.684;6.954;2023-03-14T05:41:46;1.03;;;0.53;;
6269;SDS011;3168;51.684;6.954;2023-03-14T05:44:12;6.00;;;0.80;;
6269;SDS011;3168;51.684;6.954;2023-03-14T05:46:38;0.80;;;0.80;;
6269;SDS011;3168;51.684;6.954;2023-03-14T05:49:04;0.53;;;0.53;;
6269;SDS011;3168;51.684;6.954;2023-03-14T05:51:30;0.60;;;0.60;;
6269;SDS011;3168;51.684;6.954;2023-03-14T05:53:56;0.50;;;0.50;;
6269;SDS011;3168;51.684;6.954;2023-03-14T05:56:22;0.97;;;0.97;;
6269;SDS011;3168;51.684;6.954;2023-03-14T05:58:48;1.37;;;0.77;;
6269;SDS011;3168;51.684;6.954;2023-03-14T06:01:14;4.30;;;0.87;;
6269;SDS011;3168;51.684;6.954;2023-03-14T06:03:40;21.63;;;1.17;;
6269;SDS011;3168;51.684;6.954;2023-03-14T06:06:06;0.73;;;0.73;;
6269;SDS011;3168;51.684;6.954;2023-03-14T06:08:33;1.07;;;0.60;;
6269;SDS011;3168;51.684;6.954;2023-03-14T06:10:59;0.70;;;0.70;;
6269;SDS011;3168;51.684;6.954;2023-03-14T06:13:25;0.90;;;0.90;;
6269;SDS011;3168;51.684;6.954;2023-03-14T06:15:51;1.67;;;1.57;;
6269;SDS011;3168;51.684;6.954;2023-03-14T06:18:17;1.40;;;1.40;;
6269;SDS011;3168;51.684;6.954;2023-03-14T06:20:42;4.47;;;1.60;;
6269;SDS011;3168;51.684;6.954;2023-03-14T06:23:08;1.20;;;1.20;;
6269;SDS011;3168;51.684;6.954;2023-03-14T06:25:35;1.70;;;1.60;;
6269;SDS011;3168;51.684;6.954;2023-03-14T06:28:00;1.73;;;1.73;;
6269;SDS011;3168;51.684;6.954;2023-03-14T06:30:25;1.70;;;1.60;;
6269;SDS011;3168;51.684;6.954;2023-03-14T06:32:53;2.57;;;2.40;;
6269;SDS011;3168;51.684;6.954;2023-03-14T06:35:20;3.43;;;3.10;;
6269;SDS011;3168;51.684;6.954;2023-03-14T06:37:46;4.77;;;4.13;;
6269;SDS011;3168;51.684;6.954;2023-03-14T06:40:12;4.50;;;4.20;;
6269;SDS011;3168;51.684;6.954;2023-03-14T06:42:38;6.03;;;4.20;;
6269;SDS011;3168;51.684;6.954;2023-03-14T06:45:05;12.97;;;5.00;;
6269;SDS011;3168;51.684;6.954;2023-03-14T06:47:32;3.20;;;2.97;;
6269;SDS011;3168;51.684;6.954;2023-03-14T06:49:58;3.10;;;3.00;;
6269;SDS011;3168;51.684;6.954;2023-03-14T06:52:24;4.40;;;3.33;;
6269;SDS011;3168;51.684;6.954;2023-03-14T06:54:50;2.30;;;2.20;;
6269;SDS011;3168;51.684;6.954;2023-03-14T06:57:16;5.80;;;3.17;;
6269;SDS011;3168;51.684;6.954;2023-03-14T06:59:42;2.73;;;2.60;;
6269;SDS011;3168;51.684;6.954;2023-03-14T07:02:10;2.97;;;2.77;;
6269;SDS011;3168;51.684;6.954;2023-03-14T07:04:33;2.37;;;2.27;;
6269;SDS011;3168;51.684;6.954;2023-03-14T07:06:59;2.03;;;1.93;;
6269;SDS011;3168;51.684;6.954;2023-03-14T07:09:25;1.87;;;1.77;;
6269;SDS011;3168;51.684;6.954;2023-03-14T07:11:51;2.03;;;2.03;;
6269;SDS011;3168;51.684;6.954;2023-03-14T07:14:17;2.70;;;2.57;;
6269;SDS011;3168;51.684;6.954;2023-03-14T07:16:42;2.53;;;2.40;;
6269;SDS011;3168;51.684;6.954;2023-03-14T07:19:08;4.23;;;1.80;;
6269;SDS011;3168;51.684;6.954;2023-03-14T07:21:34;1.30;;;1.30;;
6269;SDS011;3168;51.684;6.954;2023-03-14T07:24:00;1.27;;;1.27;;
6269;SDS011;3168;51.684;6.954;2023-03-14T07:26:26;1.07;;;1.07;;
6269;SDS011;3168;51.684;6.954;2023-03-14T07:28:52;2.60;;;1.50;;
6269;SDS011;3168;51.684;6.954;2023-03-14T07:31:18;0.70;;;0.70;;
6269;SDS011;3168;51.684;6.954;2023-03-14T07:33:43;1.48;;;1.37;;
6269;SDS011;3168;51.684;6.954;2023-03-14T07:36:09;1.00;;;1.00;;
6269;SDS011;3168;51.684;6.954;2023-03-14T07:38:35;0.90;;;0.90;;
6269;SDS011;3168;51.684;6.954;2023-03-14T07:41:02;1.40;;;1.40;;
6269;SDS011;3168;51.684;6.954;2023-03-14T07:43:27;1.23;;;1.23;;
6269;SDS011;3168;51.684;6.954;2023-03-14T07:45:53;1.20;;;1.20;;
6269;SDS011;3168;51.684;6.954;2023-03-14T07:48:19;1.87;;;1.40;;
6269;SDS011;3168;51.684;6.954;2023-03-14T07:50:48;4.00;;;1.50;;
6269;SDS011;3168;51.684;6.954;2023-03-14T07:53:13;1.10;;;1.10;;
6269;SDS011;3168;51.684;6.954;2023-03-14T07:55:39;0.97;;;0.97;;
6269;SDS011;3168;51.684;6.954;2023-03-14T07:58:05;1.00;;;1.00;;
6269;SDS011;3168;51.684;6.954;2023-03-14T08:00:31;0.77;;;0.77;;
6269;SDS011;3168;51.684;6.954;2023-03-14T08:02:57;1.10;;;1.10;;
6269;SDS011;3168;51.684;6.954;2023-03-14T08:05:23;1.30;;;1.30;;
6269;SDS011;3168;51.684;6.954;2023-03-14T08:07:48;1.30;;;1.30;;
6269;SDS011;3168;51.684;6.954;2023-03-14T08:10:14;0.90;;;0.90;;
6269;SDS011;3168;51.684;6.954;2023-03-14T08:12:47;1.10;;;1.10;;
6269;SDS011;3168;51.684;6.954;2023-03-14T08:15:12;0.93;;;0.93;;
6269;SDS011;3168;51.684;6.954;2023-03-14T08:17:38;1.43;;;1.33;;
6269;SDS011;3168;51.684;6.954;2023-03-14T08:20:04;1.17;;;1.17;;
6269;SDS011;3168;51.684;6.954;2023-03-14T08:22:32;1.20;;;1.10;;
6269;SDS011;3168;51.684;6.954;2023-03-14T08:24:58;1.30;;;1.30;;
6269;SDS011;3168;51.684;6.954;2023-03-14T08:27:24;1.53;;;1.20;;
6269;SDS011;3168;51.684;6.954;2023-03-14T08:29:50;0.80;;;0.80;;
6269;SDS011;3168;51.684;6.954;2023-03-14T08:32:16;1.20;;;1.20;;
6269;SDS011;3168;51.684;6.954;2023-03-14T08:34:42;3.73;;;1.50;;
6269;SDS011;3168;51.684;6.954;2023-03-14T08:37:08;2.00;;;1.90;;
6269;SDS011;3168;51.684;6.954;2023-03-14T08:39:33;4.53;;;1.33;;
6269;SDS011;3168;51.684;6.954;2023-03-14T08:41:59;1.30;;;1.30;;
6269;SDS011;3168;51.684;6.954;2023-03-14T08:44:26;1.10;;;1.10;;
6269;SDS011;3168;51.684;6.954;2023-03-14T08:46:52;0.70;;;0.70;;
6269;SDS011;3168;51.684;6.954;2023-03-14T08:49:17;0.80;;;0.70;;
6269;SDS011;3168;51.684;6.954;2023-03-14T08:51:43;1.30;;;1.20;;
6269;SDS011;3168;51.684;6.954;2023-03-14T08:54:09;0.90;;;0.90;;
6269;SDS011;3168;51.684;6.954;2023-03-14T08:56:35;0.97;;;0.97;;
6269;SDS011;3168;51.684;6.954;2023-03-14T08:59:01;0.97;;;0.97;;
6269;SDS011;3168;51.684;6.954;2023-03-14T09:01:26;2.10;;;1.10;;
6269;SDS011;3168;51.684;6.954;2023-03-14T09:03:52;1.33;;;1.33;;
6269;SDS011;3168;51.684;6.954;2023-03-14T09:06:18;2.97;;;1.40;;
6269;SDS011;3168;51.684;6.954;2023-03-14T09:08:44;1.10;;;1.10;;
6269;SDS011;3168;51.684;6.954;2023-03-14T09:11:10;1.03;;;0.70;;
6269;SDS011;3168;51.684;6.954;2023-03-14T09:13:36;1.77;;;0.50;;
6269;SDS011;3168;51.684;6.954;2023-03-14T09:16:02;0.60;;;0.60;;
6269;SDS011;3168;51.684;6.954;2023-03-14T09:18:27;0.50;;;0.50;;
6269;SDS011;3168;51.684;6.954;2023-03-14T09:20:53;0.60;;;0.60;;
6269;SDS011;3168;51.684;6.954;2023-03-14T09:23:19;0.60;;;0.60;;
6269;SDS011;3168;51.684;6.954;2023-03-14T09:25:45;0.50;;;0.50;;
6269;SDS011;3168;51.684;6.954;2023-03-14T09:28:11;0.60;;;0.60;;
6269;SDS011;3168;51.684;6.954;2023-03-14T09:30:37;0.70;;;0.70;;
6269;SDS011;3168;51.684;6.954;2023-03-14T09:33:02;0.60;;;0.60;;
6269;SDS011;3168;51.684;6.954;2023-03-14T09:35:28;0.70;;;0.70;;
6269;SDS011;3168;51.684;6.954;2023-03-14T09:37:54;0.60;;;0.60;;
6269;SDS011;3168;51.684;6.954;2023-03-14T09:40:20;0.70;;;0.70;;
6269;SDS011;3168;51.684;6.954;2023-03-14T09:42:47;0.70;;;0.70;;
6269;SDS011;3168;51.684;6.954;2023-03-14T09:45:17;0.70;;;0.70;;
6269;SDS011;3168;51.684;6.954;2023-03-14T09:47:40;3.47;;;0.60;;
6269;SDS011;3168;51.684;6.954;2023-03-14T09:50:09;0.60;;;0.60;;
6269;SDS011;3168;51.684;6.954;2023-03-14T09:52:36;0.50;;;0.50;;
6269;SDS011;3168;51.684;6.954;2023-03-14T09:55:02;0.60;;;0.60;;
6269;SDS011;3168;51.684;6.954;2023-03-14T09:57:28;0.50;;;0.50;;
6269;SDS011;3168;51.684;6.954;2023-03-14T09:59:55;0.60;;;0.60;;
6269;SDS011;3168;51.684;6.954;2023-03-14T10:02:22;4.53;;;0.70;;
6269;SDS011;3168;51.684;6.954;2023-03-14T10:04:48;0.50;;;0.50;;
6269;SDS011;3168;51.684;6.954;2023-03-14T10:07:13;0.40;;;0.40;;
6269;SDS011;3168;51.684;6.954;2023-03-14T10:09:38;0.50;;;0.50;;
6269;SDS011;3168;51.684;6.954;2023-03-14T10:12:04;2.63;;;0.73;;
6269;SDS011;3168;51.684;6.954;2023-03-14T10:14:33;0.50;;;0.50;;
6269;SDS011;3168;51.684;6.954;2023-03-14T10:17:04;0.93;;;0.60;;
6269;SDS011;3168;51.684;6.954;2023-03-14T10:19:23;0.60;;;0.60;;
6269;SDS011;3168;51.684;6.954;2023-03-14T10:21:50;11.73;;;4.70;;
6269;SDS011;3168;51.684;6.954;2023-03-14T10:24:21;0.80;;;0.80;;
6269;SDS011;3168;51.684;6.954;2023-03-14T10:26:47;0.60;;;0.60;;
6269;SDS011;3168;51.684;6.954;2023-03-14T10:29:13;0.90;;;0.90;;
6269;SDS011;3168;51.684;6.954;2023-03-14T10:31:46;0.70;;;0.70;;
6269;SDS011;3168;51.684;6.954;2023-03-14T10:34:16;3.53;;;0.70;;
6269;SDS011;3168;51.684;6.954;2023-03-14T10:36:41;0.50;;;0.50;;
6269;SDS011;3168;51.684;6.954;2023-03-14T10:41:41;0.50;;;0.50;;
6269;SDS011;3168;51.684;6.954;2023-03-14T10:44:07;0.57;;;0.57;;
6269;SDS011;3168;51.684;6.954;2023-03-14T10:46:33;1.43;;;0.70;;
6269;SDS011;3168;51.684;6.954;2023-03-14T10:48:59;0.60;;;0.60;;
6269;SDS011;3168;51.684;6.954;2023-03-14T10:51:26;0.50;;;0.50;;
6269;SDS011;3168;51.684;6.954;2023-03-14T10:53:57;0.60;;;0.60;;
6269;SDS011;3168;51.684;6.954;2023-03-14T10:56:24;0.50;;;0.50;;
6269;SDS011;3168;51.684;6.954;2023-03-14T10:58:51;0.60;;;0.60;;
6269;SDS011;3168;51.684;6.954;2023-03-14T11:07:03;0.73;;;0.73;;
6269;SDS011;3168;51.684;6.954;2023-03-14T11:09:33;0.73;;;0.70;;
6269;SDS011;3168;51.684;6.954;2023-03-14T11:12:01;2.20;;;0.80;;
6269;SDS011;3168;51.684;6.954;2023-03-14T11:14:29;0.70;;;0.70;;
6269;SDS011;3168;51.684;6.954;2023-03-14T11:16:56;0.50;;;0.50;;
6269;SDS011;3168;51.684;6.954;2023-03-14T11:22:13;0.57;;;0.57;;
6269;SDS011;3168;51.684;6.954;2023-03-14T11:24:53;1.53;;;0.63;;
6269;SDS011;3168;51.684;6.954;2023-03-14T11:30:15;0.50;;;0.50;;
6269;SDS011;3168;51.684;6.954;2023-03-14T11:35:50;0.50;;;0.50;;
6269;SDS011;3168;51.684;6.954;2023-03-14T11:38:26;0.45;;;0.45;;
6269;SDS011;3168;51.684;6.954;2023-03-14T11:41:04;0.53;;;0.53;;
6269;SDS011;3168;51.684;6.954;2023-03-14T11:43:32;1.23;;;0.63;;
6269;SDS011;3168;51.684;6.954;2023-03-14T11:45:57;0.53;;;0.53;;
6269;SDS011;3168;51.684;6.954;2023-03-14T11:48:25;0.70;;;0.70;;
6269;SDS011;3168;51.684;6.954;2023-03-14T11:50:48;0.50;;;0.50;;
6269;SDS011;3168;51.684;6.954;2023-03-14T11:53:14;1.43;;;1.33;;
6269;SDS011;3168;51.684;6.954;2023-03-14T11:55:40;3.10;;;1.27;;
6269;SDS011;3168;51.684;6.954;2023-03-14T11:58:11;0.50;;;0.50;;
6269;SDS011;3168;51.684;6.954;2023-03-14T12:00:38;0.60;;;0.60;;
6269;SDS011;3168;51.684;6.954;2023-03-14T12:05:51;1.07;;;0.70;;
6269;SDS011;3168;51.684;6.954;2023-03-14T12:08:22;1.63;;;0.80;;
6269;SDS011;3168;51.684;6.954;2023-03-14T12:10:49;5.07;;;0.60;;
6269;SDS011;3168;51.684;6.954;2023-03-14T12:13:14;0.73;;;0.47;;
6269;SDS011;3168;51.684;6.954;2023-03-14T12:15:40;1.67;;;1.53;;
6269;SDS011;3168;51.684;6.954;2023-03-14T12:18:14;2.83;;;1.43;;
6269;SDS011;3168;51.684;6.954;2023-03-14T12:20:31;0.87;;;0.70;;
6269;SDS011;3168;51.684;6.954;2023-03-14T12:23:02;0.87;;;0.87;;
6269;SDS011;3168;51.684;6.954;2023-03-14T12:25:28;0.83;;;0.83;;
6269;SDS011;3168;51.684;6.954;2023-03-14T12:30:39;0.60;;;0.60;;
6269;SDS011;3168;51.684;6.954;2023-03-14T12:33:18;9.33;;;1.03;;
6269;SDS011;3168;51.684;6.954;2023-03-14T12:35:39;0.60;;;0.60;;
6269;SDS011;3168;51.684;6.954;2023-03-14T12:38:09;0.40;;;0.40;;
6269;SDS011;3168;51.684;6.954;2023-03-14T12:40:33;11.75;;;1.42;;
6269;SDS011;3168;51.684;6.954;2023-03-14T12:42:58;1.80;;;0.80;;
6269;SDS011;3168;51.684;6.954;2023-03-14T12:45:28;2.10;;;1.13;;
6269;SDS011;3168;51.684;6.954;2023-03-14T12:47:55;0.50;;;0.50;;
6269;SDS011;3168;51.684;6.954;2023-03-14T12:53:32;1.60;;;0.93;;
6269;SDS011;3168;51.684;6.954;2023-03-14T12:56:06;3.57;;;0.77;;
6269;SDS011;3168;51.684;6.954;2023-03-14T12:58:37;0.83;;;0.60;;
6269;SDS011;3168;51.684;6.954;2023-03-14T13:01:03;1.27;;;0.73;;
6269;SDS011;3168;51.684;6.954;2023-03-14T13:06:02;2.20;;;1.60;;
6269;SDS011;3168;51.684;6.954;2023-03-14T13:08:32;12.33;;;1.23;;
6269;SDS011;3168;51.684;6.954;2023-03-14T13:10:58;3.33;;;1.60;;
6269;SDS011;3168;51.684;6.954;2023-03-14T13:13:24;2.67;;;1.60;;
6269;SDS011;3168;51.684;6.954;2023-03-14T13:15:53;0.83;;;0.83;;
6269;SDS011;3168;51.684;6.954;2023-03-14T13:18:17;6.83;;;1.13;;
6269;SDS011;3168;51.684;6.954;2023-03-14T13:23:25;3.30;;;0.90;;
6269;SDS011;3168;51.684;6.954;2023-03-14T13:25:51;4.40;;;0.87;;
6269;SDS011;3168;51.684;6.954;2023-03-14T13:28:17;1.27;;;1.17;;
6269;SDS011;3168;51.684;6.954;2023-03-14T13:30:43;8.33;;;2.60;;
6269;SDS011;3168;51.684;6.954;2023-03-14T13:33:12;6.03;;;1.80;;
6269;SDS011;3168;51.684;6.954;2023-03-14T13:35:39;1.63;;;1.50;;
6269;SDS011;3168;51.684;6.954;2023-03-14T13:38:04;10.77;;;1.30;;
6269;SDS011;3168;51.684;6.954;2023-03-14T13:40:31;4.13;;;1.03;;
6269;SDS011;3168;51.684;6.954;2023-03-14T13:43:04;5.10;;;0.90;;
6269;SDS011;3168;51.684;6.954;2023-03-14T13:45:31;3.50;;;0.80;;
6269;SDS011;3168;51.684;6.954;2023-03-14T13:47:56;1.60;;;0.80;;
6269;SDS011;3168;51.684;6.954;2023-03-14T13:50:22;3.37;;;0.97;;
6269;SDS011;3168;51.684;6.954;2023-03-14T13:52:54;1.60;;;1.50;;
6269;SDS011;3168;51.684;6.954;2023-03-14T13:55:15;10.63;;;1.67;;
6269;SDS011;3168;51.684;6.954;2023-03-14T13:57:43;2.07;;;1.23;;
6269;SDS011;3168;51.684;6.954;2023-03-14T14:00:16;0.80;;;0.80;;
6269;SDS011;3168;51.684;6.954;2023-03-14T14:02:39;0.53;;;0.53;;
6269;SDS011;3168;51.684;6.954;2023-03-14T14:05:05;1.77;;;1.47;;
6269;SDS011;3168;51.684;6.954;2023-03-14T14:07:31;1.13;;;0.80;;
6269;SDS011;3168;51.684;6.954;2023-03-14T14:09:57;24.57;;;1.20;;
6269;SDS011;3168;51.684;6.954;2023-03-14T14:12:25;0.70;;;0.70;;
6269;SDS011;3168;51.684;6.954;2023-03-14T14:14:51;6.23;;;1.03;;
6269;SDS011;3168;51.684;6.954;2023-03-14T14:17:32;1.43;;;1.03;;
6269;SDS011;3168;51.684;6.954;2023-03-14T14:19:57;0.80;;;0.80;;
6269;SDS011;3168;51.684;6.954;2023-03-14T14:22:22;1.13;;;1.10;;
6269;SDS011;3168;51.684;6.954;2023-03-14T14:24:48;1.17;;;1.17;;
6269;SDS011;3168;51.684;6.954;2023-03-14T14:27:17;7.27;;;0.90;;
6269;SDS011;3168;51.684;6.954;2023-03-14T14:29:43;0.70;;;0.70;;
6269;SDS011;3168;51.684;6.954;2023-03-14T14:32:11;0.80;;;0.80;;
6269;SDS011;3168;51.684;6.954;2023-03-14T14:34:42;0.80;;;0.80;;
6269;SDS011;3168;51.684;6.954;2023-03-14T14:37:17;1.17;;;1.07;;
6269;SDS011;3168;51.684;6.954;2023-03-14T14:39:43;8.83;;;1.40;;
6269;SDS011;3168;51.684;6.954;2023-03-14T14:42:12;0.60;;;0.60;;
6269;SDS011;3168;51.684;6.954;2023-03-14T14:44:35;12.57;;;1.17;;
6269;SDS011;3168;51.684;6.954;2023-03-14T14:47:02;5.87;;;1.03;;
6269;SDS011;3168;51.684;6.954;2023-03-14T14:49:30;2.00;;;1.23;;
6269;SDS011;3168;51.684;6.954;2023-03-14T14:52:00;0.80;;;0.80;;
6269;SDS011;3168;51.684;6.954;2023-03-14T14:54:32;3.50;;;0.70;;
6269;SDS011;3168;51.684;6.954;2023-03-14T14:56:48;1.37;;;0.77;;
6269;SDS011;3168;51.684;6.954;2023-03-14T14:59:21;5.80;;;1.23;;
6269;SDS011;3168;51.684;6.954;2023-03-14T15:01:45;0.67;;;0.67;;
6269;SDS011;3168;51.684;6.954;2023-03-14T15:04:12;2.07;;;1.00;;
6269;SDS011;3168;51.684;6.954;2023-03-14T15:06:37;1.17;;;1.17;;
6269;SDS011;3168;51.684;6.954;2023-03-14T15:09:04;1.50;;;1.17;;
6269;SDS011;3168;51.684;6.954;2023-03-14T15:11:29;0.70;;;0.70;;
6269;SDS011;3168;51.684;6.954;2023-03-14T15:13:54;1.43;;;0.83;;
6269;SDS011;3168;51.684;6.954;2023-03-14T15:16:22;1.60;;;0.83;;
6269;SDS011;3168;51.684;6.954;2023-03-14T15:18:50;2.03;;;1.00;;
6269;SDS011;3168;51.684;6.954;2023-03-14T15:21:14;1.20;;;0.70;;
6269;SDS011;3168;51.684;6.954;2023-03-14T15:23:40;0.50;;;0.50;;
6269;SDS011;3168;51.684;6.954;2023-03-14T15:26:11;3.10;;;1.00;;
6269;SDS011;3168;51.684;6.954;2023-03-14T15:28:37;0.73;;;0.73;;
6269;SDS011;3168;51.684;6.954;2023-03-14T15:31:03;0.60;;;0.60;;
6269;SDS011;3168;51.684;6.954;2023-03-14T15:33:29;0.73;;;0.50;;
6269;SDS011;3168;51.684;6.954;2023-03-14T15:35:55;0.60;;;0.60;;
6269;SDS011;3168;51.684;6.954;2023-03-14T15:38:21;1.60;;;1.00;;
6269;SDS011;3168;51.684;6.954;2023-03-14T15:40:47;0.70;;;0.70;;
6269;SDS011;3168;51.684;6.954;2023-03-14T15:43:13;0.50;;;0.50;;
6269;SDS011;3168;51.684;6.954;2023-03-14T15:45:38;0.60;;;0.60;;